createdAt,value
2022-11-14T00:02:34.687Z,22.40
2022-11-14T00:07:52.745Z,19.80
2022-11-14T00:13:10.365Z,26.70
2022-11-14T00:18:27.604Z,25.00
2022-11-14T00:23:45.152Z,23.40
2022-11-14T00:29:02.829Z,23.10
2022-11-14T00:34:20.805Z,25.50
2022-11-14T00:39:38.172Z,21.60
2022-11-14T00:44:56.039Z,21.90
2022-11-14T00:50:14.804Z,22.80
2022-11-14T00:55:32.715Z,18.80
2022-11-14T01:00:50.315Z,19.50
2022-11-14T01:06:14.572Z,22.80
2022-11-14T01:11:31.807Z,19.60
2022-11-14T01:16:49.537Z,22.60
2022-11-14T01:22:07.413Z,22.70
2022-11-14T01:27:24.510Z,19.50
2022-11-14T01:32:42.273Z,18.90
2022-11-14T01:37:59.128Z,21.70
2022-11-14T01:43:35.798Z,17.80
2022-11-14T01:48:58.353Z,21.80
2022-11-14T01:54:22.428Z,20.20
2022-11-14T01:59:49.176Z,17.40
2022-11-14T02:05:13.036Z,20.80
2022-11-14T02:10:30.726Z,21.40
2022-11-14T02:15:48.973Z,17.20
2022-11-14T02:21:07.534Z,17.40
2022-11-14T02:26:26.214Z,18.10
2022-11-14T02:31:44.136Z,20.20
2022-11-14T02:37:01.834Z,20.40
2022-11-14T02:42:19.704Z,14.50
2022-11-14T02:47:37.396Z,17.20
2022-11-14T02:52:55.939Z,18.80
2022-11-14T02:58:13.240Z,15.40
2022-11-14T03:03:30.727Z,16.10
2022-11-14T03:08:47.846Z,17.10
2022-11-14T03:14:05.957Z,17.20
2022-11-14T03:19:23.294Z,14.50
2022-11-14T03:24:41.049Z,16.70
2022-11-14T03:29:58.872Z,15.60
2022-11-14T03:35:16.330Z,12.80
2022-11-14T03:40:33.598Z,12.50
2022-11-14T03:45:51.755Z,17.10
2022-11-14T03:51:08.831Z,14.20
2022-11-14T03:56:26.593Z,15.90
2022-11-14T04:01:43.992Z,21.50
2022-11-14T04:07:01.772Z,17.80
2022-11-14T04:12:19.215Z,21.90
2022-11-14T04:17:39.831Z,19.10
2022-11-14T04:22:58.112Z,16.20
2022-11-14T04:28:15.725Z,16.10
2022-11-14T04:33:32.951Z,17.30
2022-11-14T04:38:52.938Z,14.40
2022-11-14T04:44:10.170Z,20.00
2022-11-14T04:49:27.283Z,17.30
2022-11-14T04:54:44.505Z,17.80
2022-11-14T05:00:01.252Z,16.10
2022-11-14T05:05:18.978Z,19.40
2022-11-14T05:10:36.640Z,20.10
2022-11-14T05:15:53.823Z,16.40
2022-11-14T05:21:15.138Z,20.20
2022-11-14T05:26:32.661Z,19.30
2022-11-14T05:31:49.865Z,20.10
2022-11-14T05:37:08.688Z,20.60
2022-11-14T05:42:26.513Z,18.70
2022-11-14T05:47:44.233Z,19.50
2022-11-14T05:53:02.079Z,20.50
2022-11-14T05:58:19.725Z,19.00
2022-11-14T06:03:41.378Z,24.20
2022-11-14T06:08:59.463Z,26.10
2022-11-14T06:14:17.843Z,26.80
2022-11-14T06:19:35.523Z,25.90
2022-11-14T06:24:52.861Z,26.20
2022-11-14T06:30:13.381Z,21.40
2022-11-14T06:35:33.309Z,21.90
2022-11-14T06:40:51.022Z,19.00
2022-11-14T06:46:10.902Z,20.10
2022-11-14T06:51:28.482Z,19.50
2022-11-14T06:56:46.700Z,18.40
2022-11-14T07:02:04.429Z,15.80
2022-11-14T07:07:21.139Z,15.70
2022-11-14T07:12:40.078Z,16.10
2022-11-14T07:17:57.037Z,13.60
2022-11-14T07:23:14.901Z,12.40
2022-11-14T07:28:35.053Z,13.90
2022-11-14T07:33:52.349Z,13.40
2022-11-14T07:39:10.466Z,11.80
2022-11-14T07:44:28.789Z,12.30
2022-11-14T07:49:45.824Z,10.40
2022-11-14T07:55:03.164Z,7.50
2022-11-14T08:00:21.375Z,10.90
2022-11-14T08:05:38.440Z,9.10
2022-11-14T08:10:59.323Z,7.60
2022-11-14T08:16:17.014Z,7.20
2022-11-14T08:21:34.183Z,8.70
2022-11-14T08:26:52.163Z,10.20
2022-11-14T08:32:10.373Z,10.00
2022-11-14T08:37:32.267Z,10.60
2022-11-14T08:42:49.523Z,10.40
2022-11-14T08:48:07.857Z,9.50
2022-11-14T08:53:26.321Z,10.10
2022-11-14T08:58:43.467Z,8.20
2022-11-14T09:04:01.198Z,9.40
2022-11-14T09:09:18.722Z,9.00
2022-11-14T09:14:35.926Z,10.00
2022-11-14T09:19:53.317Z,9.20
2022-11-14T09:25:13.364Z,11.50
2022-11-14T09:30:30.944Z,9.50
2022-11-14T09:35:48.460Z,8.00
2022-11-14T09:41:26.105Z,7.30
2022-11-14T09:46:47.415Z,7.60
2022-11-14T09:52:16.974Z,6.70
2022-11-14T09:57:35.406Z,8.40
2022-11-14T10:03:13.792Z,6.70
2022-11-14T10:08:50.111Z,6.60
2022-11-14T10:14:55.193Z,6.20
2022-11-14T10:20:24.526Z,9.30
2022-11-14T10:25:56.088Z,4.30
2022-11-14T10:31:26.606Z,5.30
2022-11-14T10:37:02.850Z,4.90
2022-11-14T10:42:27.743Z,6.10
2022-11-14T10:47:51.468Z,5.10
2022-11-14T10:53:20.994Z,5.40
2022-11-14T10:58:47.879Z,5.90
2022-11-14T11:04:21.470Z,7.80
2022-11-14T11:10:17.745Z,7.10
2022-11-14T11:15:43.292Z,8.80
2022-11-14T11:21:14.554Z,12.40
2022-11-14T11:26:34.282Z,12.40
2022-11-14T11:32:00.583Z,13.80
2022-11-14T11:37:24.373Z,16.20
2022-11-14T11:48:35.794Z,16.90
2022-11-14T11:54:05.333Z,14.80
2022-11-14T11:59:33.777Z,19.10
2022-11-14T12:04:53.175Z,19.20
2022-11-14T12:10:22.472Z,16.80
2022-11-14T12:15:53.807Z,13.70
2022-11-14T12:21:21.233Z,12.60
2022-11-14T12:27:04.017Z,13.20
2022-11-14T12:32:33.304Z,13.10
2022-11-14T12:37:55.967Z,10.00
2022-11-14T12:43:36.860Z,11.00
2022-11-14T12:48:54.615Z,11.10
2022-11-14T12:54:49.343Z,10.10
2022-11-14T13:00:12.184Z,9.20
2022-11-14T13:05:55.345Z,10.40
2022-11-14T13:12:03.236Z,11.00
2022-11-14T13:17:47.770Z,16.80
2022-11-14T13:23:05.913Z,18.90
2022-11-14T13:28:52.695Z,20.20
2022-11-14T13:34:47.456Z,20.80
2022-11-14T13:40:15.871Z,21.30
2022-11-14T13:46:03.140Z,20.70
2022-11-14T13:51:42.867Z,22.70
2022-11-14T13:57:19.770Z,22.10
2022-11-14T14:03:02.020Z,25.20
2022-11-14T14:08:37.316Z,27.20
2022-11-14T14:14:14.289Z,23.80
2022-11-14T14:19:49.625Z,22.90
2022-11-14T14:25:16.599Z,24.10
2022-11-14T14:30:34.118Z,22.00
2022-11-14T14:35:56.393Z,23.80
2022-11-14T14:41:15.582Z,25.10
2022-11-14T14:46:36.628Z,25.00
2022-11-14T14:51:58.348Z,25.10
2022-11-14T14:57:23.586Z,25.90
2022-11-14T15:02:41.112Z,23.00
2022-11-14T15:08:02.037Z,28.20
2022-11-14T15:13:21.105Z,26.10
2022-11-14T15:18:39.592Z,28.60
2022-11-14T15:24:14.480Z,28.50
2022-11-14T15:29:33.469Z,22.20
2022-11-14T15:35:25.724Z,23.30
2022-11-14T15:40:44.282Z,18.60
2022-11-14T15:46:01.742Z,19.40
2022-11-14T15:51:19.642Z,24.00
2022-11-14T15:56:37.304Z,24.00
2022-11-14T16:02:00.687Z,21.50
2022-11-14T16:07:19.749Z,25.90
2022-11-14T16:12:37.741Z,20.20
2022-11-14T16:17:55.384Z,26.70
2022-11-14T16:23:15.738Z,24.00
2022-11-14T16:28:32.933Z,21.50
2022-11-14T16:33:51.003Z,25.30
2022-11-14T16:39:26.830Z,23.90
2022-11-14T16:45:04.471Z,24.20
2022-11-14T16:50:23.698Z,19.30
2022-11-14T16:55:45.292Z,17.90
2022-11-14T17:01:02.691Z,18.60
2022-11-14T17:06:21.051Z,22.20
2022-11-14T17:11:38.696Z,21.00
2022-11-14T17:16:56.152Z,24.80
2022-11-14T17:22:13.875Z,27.90
2022-11-14T17:27:30.552Z,18.70
2022-11-14T17:32:51.373Z,17.40
2022-11-14T17:38:41.063Z,17.20
2022-11-14T17:44:35.244Z,18.20
2022-11-14T17:49:53.028Z,18.70
2022-11-14T17:55:11.175Z,15.60
2022-11-14T18:00:29.597Z,16.20
2022-11-14T18:05:47.603Z,20.80
2022-11-14T18:11:08.248Z,17.30
2022-11-14T18:16:28.615Z,17.20
2022-11-14T18:21:56.980Z,14.10
2022-11-14T18:27:14.049Z,17.90
2022-11-14T18:32:31.482Z,19.00
2022-11-14T18:37:48.570Z,17.00
2022-11-14T18:43:05.806Z,20.50
2022-11-14T18:48:23.338Z,18.80
2022-11-14T18:53:41.342Z,17.20
2022-11-14T18:59:00.871Z,19.00
2022-11-14T19:04:19.835Z,19.70
2022-11-14T19:09:56.787Z,18.90
2022-11-14T19:15:15.764Z,17.80
2022-11-14T19:20:33.251Z,18.60
2022-11-14T19:25:51.077Z,15.40
2022-11-14T19:31:09.772Z,16.20
2022-11-14T19:36:53.148Z,13.40
2022-11-14T19:42:05.612Z,17.30
2022-11-14T19:47:23.416Z,18.10
2022-11-14T19:52:43.785Z,20.90
2022-11-14T19:58:02.734Z,20.40
2022-11-14T20:03:20.526Z,19.70
2022-11-14T20:08:39.368Z,20.10
2022-11-14T20:14:05.941Z,22.50
2022-11-14T20:19:24.073Z,22.00
2022-11-14T20:24:41.339Z,19.50
2022-11-14T20:29:59.908Z,16.90
2022-11-14T20:35:18.145Z,24.10
2022-11-14T20:40:36.507Z,20.60
2022-11-14T20:52:28.292Z,18.60
2022-11-14T20:57:46.364Z,18.90
2022-11-14T21:03:03.693Z,20.70
2022-11-14T21:08:21.995Z,23.00
2022-11-14T21:14:00.392Z,20.10
2022-11-14T21:19:17.371Z,20.20
2022-11-14T21:24:39.522Z,21.70
2022-11-14T21:29:58.094Z,19.50
2022-11-14T21:35:15.731Z,22.20
2022-11-14T21:40:33.156Z,20.40
2022-11-14T21:46:00.223Z,19.50
2022-11-14T21:51:21.228Z,19.80
2022-11-14T21:56:39.583Z,19.10
2022-11-14T22:02:17.242Z,23.10
2022-11-14T22:07:34.529Z,19.50
2022-11-14T22:12:52.565Z,18.40
2022-11-14T22:18:10.283Z,19.30
2022-11-14T22:23:28.904Z,20.60
2022-11-14T22:28:47.008Z,20.50
2022-11-14T22:34:05.313Z,17.20
2022-11-14T22:39:23.259Z,19.40
2022-11-14T22:44:41.191Z,23.70
2022-11-14T22:49:59.230Z,24.50
2022-11-14T22:55:18.224Z,16.90
2022-11-14T23:00:36.470Z,18.50
2022-11-14T23:05:54.445Z,21.80
2022-11-14T23:11:17.328Z,18.60
2022-11-14T23:16:36.297Z,16.50
2022-11-14T23:21:55.623Z,20.10
2022-11-14T23:27:13.345Z,17.00
2022-11-14T23:32:32.678Z,19.60
2022-11-14T23:37:52.288Z,17.90
2022-11-14T23:43:09.305Z,17.30
2022-11-14T23:48:27.899Z,16.10
2022-11-14T23:53:46.998Z,17.60
2022-11-14T23:59:04.368Z,21.40
